Flight Track Log - Related Links

Times and Time Zones

All times are in EDT time to prevent confusion due to time zone crossing. See the JBU1485 flight status page for this flight to view local times or setup timezone preferences in your user account.

Time Position Orientation Groundspeed Altitude Reporting Facility
EDT Latitude Longitude Course Direction KTS MPH feet Rate Location/Type
Tue 09:12:25 AM 42.3833 -71.0000 285° West 159 183 800  Level KA90
Tue 09:13:26 AM 42.4333 -70.9667 26° Northeast 199 229 2,600 1,984 Climbing KA90
Tue 09:14:32 AM 42.4500 -70.8833 75° East 267 307 5,000 1,469 Climbing KA90
Tue 09:15:00 AM 42.2328 -70.8180 240° Southwest  Level FlightAware Approximate
Tue 09:15:04 AM 42.4558 -70.8417 79° East 251 289 5,000  Level Boston Center
Tue 09:16:00 AM 42.1833 -70.9609 270° West  Level FlightAware Approximate
Tue 09:16:04 AM 42.4022 -70.7447 127° Southeast 311 358 6,800  Level Boston Center
Tue 09:17:00 AM 42.2133 -71.1163 285° West  Level FlightAware Approximate
Tue 09:17:04 AM 42.3147 -70.7414 178° South 324 373 9,900  Level Boston Center
Tue 09:18:04 AM 42.2511 -70.8161 221° Southwest 324 373 11,600 2,150 Climbing Boston Center
Tue 09:19:04 AM 42.2175 -70.9375 250° West 333 383 14,200 2,550 Climbing Boston Center
Tue 09:20:04 AM 42.2317 -71.0717 278° West 341 392 16,700 2,000 Climbing Boston Center
Tue 09:21:04 AM 42.2436 -71.1978 277° West 372 428 18,200 1,750 Climbing Boston Center
Tue 09:22:04 AM 42.2619 -71.3572 279° West 385 443 20,200 1,900 Climbing Boston Center
Tue 09:23:04 AM 42.2714 -71.5058 275° West 391 450 22,000 1,700 Climbing Boston Center
Tue 09:24:04 AM 42.2725 -71.6406 271° West 402 463 23,600 1,700 Climbing Boston Center
Tue 09:25:04 AM 42.2756 -71.7947 272° West 407 468 25,400 1,550 Climbing Boston Center
Tue 09:26:04 AM 42.2786 -71.9547 272° West 417 480 26,700 1,250 Climbing Boston Center
Tue 09:27:04 AM 42.2792 -72.1175 270° West 428 493 27,900 1,300 Climbing Boston Center
Tue 09:28:04 AM 42.2836 -72.2942 272° West 433 498 29,300 1,350 Climbing Boston Center
Tue 09:29:04 AM 42.2858 -72.4597 271° West 438 504 30,600 1,200 Climbing Boston Center
Tue 09:30:04 AM 42.2878 -72.5917 271° West 438 504 31,700 700 Climbing Boston Center
Tue 09:31:04 AM 42.2872 -72.7908 270° West 438 504 32,000 150 Climbing Boston Center
Tue 09:32:04 AM 42.2867 -72.9650 270° West 443 510 32,000  Level Boston Center
Tue 09:33:04 AM 42.2733 -73.1358 264° West 455 524 32,000  Level Boston Center
Tue 09:34:04 AM 42.2594 -73.3042 264° West 460 529 32,000  Level Boston Center
Tue 09:35:04 AM 42.2500 -73.4497 265° West 455 524 32,000  Level Boston Center
Tue 09:36:04 AM 42.2358 -73.6178 264° West 455 524 32,000  Level Boston Center
Tue 09:37:16 AM 42.2125 -73.8444 262° West 470 541 32,000  Level Boston Center
Tue 09:38:16 AM 42.1956 -74.0150 262° West 470 541 32,000  Level Boston Center
Tue 09:39:16 AM 42.1806 -74.1828 263° West 463 533 32,000  Level Boston Center
Tue 09:40:16 AM 42.1633 -74.3503 262° West 463 533 32,000  Level Boston Center
Tue 09:41:16 AM 42.1458 -74.5178 262° West 463 533 32,000  Level Boston Center
Tue 09:42:16 AM 42.1300 -74.6881 263° West 463 533 32,000  Level Boston Center
Tue 09:44:06 AM 42.0967 -74.9744 261° West 463 533 32,000 -667 Level New York Center
Tue 09:45:07 AM 42.0822 -75.1439 264° West 463 533 30,100 -1,967 Descending New York Center
Tue 09:46:08 AM 42.0633 -75.3158 262° West 463 533 28,000 -1,059 Descending New York Center
Tue 09:47:06 AM 42.0419 -75.4875 261° West 468 539 28,000  Level New York Center
Tue 09:48:07 AM 42.0206 -75.6592 261° West 468 539 28,000  Level New York Center
Tue 09:49:06 AM 41.9969 -75.8275 259° West 463 533 28,000  Level New York Center
Tue 09:50:05 AM 41.9750 -75.9958 260° West 463 533 28,000  Level New York Center
Tue 09:51:06 AM 41.9531 -76.1617 260° West 463 533 28,000  Level New York Center
Tue 09:52:06 AM 41.9306 -76.3325 260° West 463 533 28,000  Level New York Center
Tue 09:53:07 AM 41.9081 -76.5006 260° West 463 533 28,000 -384 Level New York Center
Tue 09:54:58 AM 41.8650 -76.8158 260° West 457 526 26,900 -702 Descending Cleveland Center
Tue 09:55:58 AM 41.8408 -76.9792 259° West 451 519 26,000 -950 Descending Cleveland Center
Tue 09:56:58 AM 41.8125 -77.1394 257° West 451 519 25,000 -950 Descending Cleveland Center
Tue 09:57:58 AM 41.7647 -77.2842 246° West 440 506 24,100 -500 Descending Cleveland Center
Tue 09:58:58 AM 41.7103 -77.4314 244° Southwest 440 506 24,000 -50 Descending Cleveland Center
Tue 09:59:58 AM 41.6500 -77.5900 243° Southwest 440 506 24,000  Level Cleveland Center
Tue 10:00:58 AM 41.5994 -77.7369 245° Southwest 440 506 24,000 -250 Level Cleveland Center
Tue 10:01:58 AM 41.5467 -77.8808 244° Southwest 440 506 23,500 -650 Descending Cleveland Center
Tue 10:02:58 AM 41.4958 -78.0269 245° Southwest 440 506 22,700 -750 Descending Cleveland Center
Tue 10:03:58 AM 41.4489 -78.1731 247° West 435 501 22,000 -350 Descending Cleveland Center
Tue 10:04:58 AM 41.4019 -78.3186 247° West 435 501 22,000  Level Cleveland Center
Tue 10:05:58 AM 41.3567 -78.4669 248° West 435 501 22,000 -350 Level Cleveland Center
Tue 10:06:58 AM 41.3114 -78.6122 248° West 435 501 21,300 -1,000 Descending Cleveland Center
Tue 10:07:58 AM 41.2658 -78.7544 247° West 430 495 20,000 -1,300 Descending Cleveland Center
Tue 10:08:58 AM 41.2200 -78.8964 247° West 425 489 18,700 -1,200 Descending Cleveland Center
Tue 10:09:58 AM 41.1781 -79.0189 246° West 414 476 17,600 -1,150 Descending Cleveland Center
Tue 10:10:58 AM 41.1339 -79.1494 246° West 401 461 16,400 -1,250 Descending Cleveland Center
Tue 10:11:58 AM 41.0878 -79.2939 247° West 396 456 15,100 -1,250 Descending Cleveland Center
Tue 10:12:58 AM 41.0472 -79.4214 247° West 390 449 13,900 -1,200 Descending Cleveland Center
Tue 10:13:58 AM 41.0047 -79.5486 246° West 390 449 12,700 -1,150 Descending Cleveland Center
Tue 10:14:58 AM 40.9619 -79.6703 245° Southwest 380 437 11,600 -1,100 Descending Cleveland Center
Tue 10:15:58 AM 40.8897 -79.7592 223° Southwest 356 410 10,500 -800 Descending Cleveland Center
Tue 10:16:58 AM 40.8111 -79.8397 218° Southwest 356 410 10,000 -250 Descending Cleveland Center
Tue 10:17:58 AM 40.7344 -79.9200 218° Southwest 361 415 10,000 -450 Level Cleveland Center
Tue 10:18:58 AM 40.6661 -79.9892 218° Southwest 340 391 9,100 -1,150 Descending Cleveland Center
Tue 10:19:58 AM 40.6100 -80.0469 218° Southwest 319 367 7,700 -1,550 Descending Cleveland Center
Tue 10:20:58 AM 40.5792 -80.1458 248° West 262 302 6,000 -850 Descending Cleveland Center
Tue 10:21:58 AM 40.5897 -80.2278 280° West 240 276 6,000  Level Cleveland Center
Tue 10:22:58 AM 40.6006 -80.3097 280° West 233 268 6,000  Level Cleveland Center
Tue 10:24:00 AM 40.5005 -80.2392 217° Southwest  Level Estimated
Tue 10:31:00 AM 40.4915 -80.2329 217° Southwest  Level Estimated
Tue 10:32:00 AM 40.4915 -80.2329 217° Southwest  Level Estimated
Tue 10:33:00 AM 40.4915 -80.2329 217° Southwest  Level Estimated

Login

Don't have an account? Register now (free) for customized features, flight alerts, and more!